createdAt,value
2018-02-19T00:02:14.034Z,59.40
2018-02-19T00:04:47.944Z,59.70
2018-02-19T00:07:22.424Z,60.50
2018-02-19T00:09:56.999Z,60.40
2018-02-19T00:12:31.858Z,60.00
2018-02-19T00:15:05.933Z,59.30
2018-02-19T00:17:39.660Z,59.30
2018-02-19T00:20:13.916Z,60.60
2018-02-19T00:22:48.158Z,59.40
2018-02-19T00:25:22.685Z,60.00
2018-02-19T00:27:56.618Z,60.00
2018-02-19T00:30:30.264Z,60.00
2018-02-19T00:33:04.200Z,60.50
2018-02-19T00:35:38.065Z,60.50
2018-02-19T00:38:11.871Z,59.60
2018-02-19T00:40:45.636Z,59.40
2018-02-19T00:43:19.821Z,59.60
2018-02-19T00:45:54.167Z,59.30
2018-02-19T00:48:28.416Z,59.50
2018-02-19T00:51:02.105Z,60.00
2018-02-19T00:53:35.944Z,59.40
2018-02-19T00:56:09.943Z,59.00
2018-02-19T00:58:44.552Z,59.30
2018-02-19T01:01:18.251Z,60.40
2018-02-19T01:03:52.214Z,59.20
2018-02-19T01:06:25.945Z,59.90
2018-02-19T01:09:00.504Z,58.30
2018-02-19T01:11:34.754Z,58.30
2018-02-19T01:14:09.283Z,58.00
2018-02-19T01:16:43.165Z,58.60
2018-02-19T01:19:17.771Z,59.60
2018-02-19T01:21:51.749Z,59.30
2018-02-19T01:24:25.733Z,59.00
2018-02-19T01:27:01.303Z,60.10
2018-02-19T01:29:35.511Z,60.10
2018-02-19T01:32:09.428Z,59.10
2018-02-19T01:34:43.103Z,59.30
2018-02-19T01:37:18.234Z,60.90
2018-02-19T01:39:52.162Z,60.30
2018-02-19T01:42:26.102Z,60.70
2018-02-19T01:45:00.544Z,61.50
2018-02-19T01:47:34.696Z,61.40
2018-02-19T01:50:16.029Z,61.20
2018-02-19T01:52:50.075Z,60.80
2018-02-19T01:55:23.964Z,60.90
2018-02-19T01:57:58.518Z,61.00
2018-02-19T02:00:32.313Z,61.00
2018-02-19T02:03:06.801Z,61.00
2018-02-19T02:05:40.916Z,61.00
2018-02-19T02:08:14.983Z,60.60
2018-02-19T02:10:48.741Z,61.50
2018-02-19T02:13:23.306Z,59.70
2018-02-19T02:15:57.278Z,59.70
2018-02-19T02:18:31.225Z,59.70
2018-02-19T02:21:04.876Z,59.50
2018-02-19T02:23:38.620Z,59.40
2018-02-19T02:26:12.381Z,59.20
2018-02-19T02:28:46.172Z,59.00
2018-02-19T02:31:19.939Z,59.50
2018-02-19T02:33:53.731Z,59.60
2018-02-19T02:36:27.447Z,59.20
2018-02-19T02:39:01.319Z,59.30
2018-02-19T02:41:35.903Z,59.70
2018-02-19T02:44:09.844Z,59.90
2018-02-19T02:46:43.677Z,59.80
2018-02-19T02:49:18.215Z,59.60
2018-02-19T02:51:52.891Z,59.40
2018-02-19T02:54:26.927Z,59.40
2018-02-19T02:57:00.785Z,59.60
2018-02-19T02:59:34.602Z,59.60
2018-02-19T03:02:08.275Z,59.90
2018-02-19T03:04:42.255Z,60.20
2018-02-19T03:07:15.988Z,60.40
2018-02-19T03:09:49.749Z,60.60
2018-02-19T03:12:24.260Z,60.30
2018-02-19T03:14:58.353Z,60.30
2018-02-19T03:17:31.993Z,60.40
2018-02-19T03:20:06.061Z,60.70
2018-02-19T03:22:40.478Z,60.70
2018-02-19T03:25:14.423Z,60.90
2018-02-19T03:27:48.363Z,60.50
2018-02-19T03:30:22.183Z,60.50
2018-02-19T03:32:55.937Z,60.40
2018-02-19T03:35:29.766Z,60.60
2018-02-19T03:38:03.675Z,60.40
2018-02-19T03:40:37.657Z,60.30
2018-02-19T03:43:12.769Z,60.30
2018-02-19T03:45:47.769Z,61.40
2018-02-19T03:48:21.694Z,61.30
2018-02-19T03:50:56.306Z,62.80
2018-02-19T03:53:30.216Z,61.80
2018-02-19T03:56:04.247Z,62.10
2018-02-19T03:58:37.966Z,61.80
2018-02-19T04:01:11.781Z,61.50
2018-02-19T04:03:46.807Z,61.20
2018-02-19T04:06:20.731Z,61.20
2018-02-19T04:08:54.448Z,61.00
2018-02-19T04:11:28.245Z,61.00
2018-02-19T04:14:01.895Z,60.70
2018-02-19T04:16:37.012Z,61.20
2018-02-19T04:19:11.066Z,61.20
2018-02-19T04:21:44.905Z,61.60
2018-02-19T04:24:18.546Z,61.80
2018-02-19T04:26:52.363Z,62.10
2018-02-19T04:29:26.659Z,62.20
2018-02-19T04:32:00.571Z,62.20
2018-02-19T04:34:35.035Z,62.30
2018-02-19T04:37:09.043Z,62.20
2018-02-19T04:39:43.603Z,62.30
2018-02-19T04:42:17.884Z,62.20
2018-02-19T04:44:55.611Z,62.60
2018-02-19T04:47:30.579Z,62.70
2018-02-19T04:50:04.840Z,62.70
2018-02-19T04:52:38.567Z,62.50
2018-02-19T04:55:12.392Z,62.60
2018-02-19T04:57:46.131Z,62.80
2018-02-19T05:00:20.008Z,63.30
2018-02-19T05:02:54.426Z,62.60
2018-02-19T05:05:28.360Z,62.50
2018-02-19T05:08:03.060Z,62.60
2018-02-19T05:10:38.476Z,62.90
2018-02-19T05:13:12.966Z,62.90
2018-02-19T05:15:46.603Z,62.90
2018-02-19T05:18:21.340Z,63.10
2018-02-19T05:20:56.154Z,63.10
2018-02-19T05:23:30.232Z,63.10
2018-02-19T05:26:04.110Z,63.30
2018-02-19T05:28:37.920Z,63.70
2018-02-19T05:31:12.509Z,64.00
2018-02-19T05:33:46.720Z,63.90
2018-02-19T05:36:20.780Z,63.70
2018-02-19T05:38:55.551Z,63.70
2018-02-19T05:41:29.445Z,63.70
2018-02-19T05:44:03.324Z,63.70
2018-02-19T05:46:36.970Z,63.90
2018-02-19T05:49:11.056Z,64.00
2018-02-19T05:51:44.916Z,64.10
2018-02-19T05:54:18.832Z,63.60
2018-02-19T05:56:52.698Z,64.00
2018-02-19T05:59:27.404Z,63.40
2018-02-19T06:02:01.339Z,64.00
2018-02-19T06:04:35.463Z,63.60
2018-02-19T06:07:09.246Z,64.00
2018-02-19T06:09:43.036Z,65.40
2018-02-19T06:12:17.485Z,65.00
2018-02-19T06:14:51.545Z,64.90
2018-02-19T06:17:26.037Z,65.70
2018-02-19T06:20:00.318Z,65.60
2018-02-19T06:22:34.079Z,64.30
2018-02-19T06:25:07.867Z,63.90
2018-02-19T06:27:41.656Z,64.80
2018-02-19T06:30:16.192Z,65.40
2018-02-19T06:32:50.222Z,64.70
2018-02-19T06:35:24.215Z,65.10
2018-02-19T06:37:59.151Z,64.50
2018-02-19T06:40:33.617Z,64.40
2018-02-19T06:43:07.874Z,64.60
2018-02-19T06:45:42.339Z,65.40
2018-02-19T06:48:17.046Z,63.60
2018-02-19T06:50:50.847Z,65.20
2018-02-19T06:53:25.470Z,65.60
2018-02-19T06:55:59.643Z,65.50
2018-02-19T06:58:34.195Z,64.40
2018-02-19T07:01:09.161Z,64.70
2018-02-19T07:03:43.273Z,64.70
2018-02-19T07:06:17.867Z,63.40
2018-02-19T07:08:52.162Z,63.20
2018-02-19T07:11:26.041Z,62.70
2018-02-19T07:14:00.027Z,64.60
2018-02-19T07:16:33.959Z,64.90
2018-02-19T07:19:07.795Z,62.90
2018-02-19T07:21:41.582Z,62.90
2018-02-19T07:24:15.203Z,62.50
2018-02-19T07:26:49.081Z,62.90
2018-02-19T07:29:23.534Z,61.00
2018-02-19T07:31:58.743Z,62.30
2018-02-19T07:34:34.215Z,62.30
2018-02-19T07:37:08.680Z,62.30
2018-02-19T07:39:43.272Z,61.50
2018-02-19T07:42:17.252Z,61.40
2018-02-19T07:44:51.083Z,62.10
2018-02-19T07:47:24.990Z,61.40
2018-02-19T07:50:00.642Z,62.50
2018-02-19T07:52:34.923Z,62.50
2018-02-19T07:55:09.609Z,62.70
2018-02-19T07:57:43.539Z,63.10
2018-02-19T08:00:18.199Z,62.20
2018-02-19T08:02:53.172Z,62.00
2018-02-19T08:05:27.556Z,61.90
2018-02-19T08:08:01.480Z,61.90
2018-02-19T08:10:35.295Z,61.60
2018-02-19T08:13:09.091Z,62.10
2018-02-19T08:15:42.918Z,61.90
2018-02-19T08:18:16.892Z,60.20
2018-02-19T08:20:51.519Z,60.50
2018-02-19T08:23:25.987Z,60.50
2018-02-19T08:26:00.329Z,60.30
2018-02-19T08:28:34.091Z,59.60
2018-02-19T08:31:07.936Z,60.10
2018-02-19T08:33:41.775Z,59.70
2018-02-19T08:36:16.203Z,59.70
2018-02-19T08:38:50.355Z,59.70
2018-02-19T08:41:24.845Z,60.30
2018-02-19T08:43:58.808Z,60.40
2018-02-19T08:46:32.661Z,60.00
2018-02-19T08:49:06.423Z,60.90
2018-02-19T08:51:40.106Z,60.90
2018-02-19T08:54:14.716Z,61.00
2018-02-19T08:56:48.628Z,60.90
2018-02-19T08:59:23.285Z,59.80
2018-02-19T09:01:57.719Z,60.40
2018-02-19T09:04:33.312Z,60.00
2018-02-19T09:07:07.745Z,60.00
2018-02-19T09:09:42.435Z,60.30
2018-02-19T09:12:16.524Z,59.60
2018-02-19T09:14:50.312Z,59.90
2018-02-19T09:17:24.177Z,59.30
2018-02-19T09:19:57.919Z,59.90
2018-02-19T09:22:31.855Z,60.00
2018-02-19T09:25:05.612Z,59.80
2018-02-19T09:27:39.355Z,59.30
2018-02-19T09:30:13.565Z,59.30
2018-02-19T09:32:47.335Z,58.50
2018-02-19T09:35:21.302Z,59.50
2018-02-19T09:37:55.141Z,59.00
2018-02-19T09:40:29.095Z,59.50
2018-02-19T09:43:03.081Z,59.50
2018-02-19T09:45:37.767Z,59.10
2018-02-19T09:48:13.083Z,59.50
2018-02-19T09:50:47.119Z,59.40
2018-02-19T09:53:21.149Z,58.70
2018-02-19T09:55:55.559Z,59.00
2018-02-19T09:58:29.482Z,59.00
2018-02-19T10:01:04.177Z,58.30
2018-02-19T10:03:39.011Z,57.70
2018-02-19T10:06:13.228Z,57.60
2018-02-19T10:08:47.724Z,57.20
2018-02-19T10:11:23.351Z,57.10
2018-02-19T10:13:57.492Z,57.00
2018-02-19T10:16:32.279Z,57.40
2018-02-19T10:19:06.273Z,57.90
2018-02-19T10:21:41.654Z,56.90
2018-02-19T10:24:16.955Z,56.10
2018-02-19T10:26:50.895Z,56.00
2018-02-19T10:29:24.599Z,56.10
2018-02-19T10:31:58.602Z,56.60
2018-02-19T10:34:32.288Z,55.70
2018-02-19T10:37:07.060Z,56.90
2018-02-19T10:39:40.960Z,56.90
2018-02-19T10:42:14.839Z,56.30
2018-02-19T10:44:48.633Z,56.10
2018-02-19T10:47:22.468Z,56.50
2018-02-19T10:49:56.135Z,55.80
2018-02-19T10:52:30.810Z,56.50
2018-02-19T10:55:04.551Z,55.60
2018-02-19T10:57:38.418Z,57.10
2018-02-19T11:00:13.585Z,56.00
2018-02-19T11:02:48.335Z,56.50
2018-02-19T11:05:22.780Z,56.50
2018-02-19T11:07:56.619Z,56.50
2018-02-19T11:10:31.865Z,58.20
2018-02-19T11:13:07.036Z,58.50
2018-02-19T11:15:41.159Z,57.80
2018-02-19T11:18:16.485Z,57.60
2018-02-19T11:20:50.559Z,57.50
2018-02-19T11:23:25.652Z,57.60
2018-02-19T11:26:00.208Z,57.60
2018-02-19T11:28:34.164Z,57.20
2018-02-19T11:31:09.507Z,57.50
2018-02-19T11:33:44.339Z,55.80
2018-02-19T11:36:19.565Z,55.60
2018-02-19T11:38:55.448Z,55.60
2018-02-19T11:41:27.596Z,55.50
2018-02-19T11:44:01.806Z,55.40
2018-02-19T11:46:35.650Z,54.50
2018-02-19T11:49:09.467Z,54.80
2018-02-19T11:51:43.351Z,54.60
2018-02-19T11:54:18.471Z,55.30
2018-02-19T11:56:52.763Z,55.30
2018-02-19T11:59:27.220Z,54.40
2018-02-19T12:02:01.182Z,54.30
2018-02-19T12:04:35.008Z,54.90
2018-02-19T12:07:08.948Z,55.60
2018-02-19T12:09:42.736Z,54.30
2018-02-19T12:12:17.344Z,55.00
2018-02-19T12:14:52.306Z,55.90
2018-02-19T12:17:27.500Z,55.30
2018-02-19T12:20:01.504Z,55.20
2018-02-19T12:22:36.260Z,54.90
2018-02-19T12:25:10.271Z,54.70
2018-02-19T12:27:44.970Z,55.70
2018-02-19T12:30:20.007Z,55.90
2018-02-19T12:32:53.810Z,55.90
2018-02-19T12:35:27.585Z,55.80
2018-02-19T12:38:01.819Z,55.90
2018-02-19T12:40:35.922Z,56.00
2018-02-19T12:43:10.425Z,55.40
2018-02-19T12:45:45.545Z,54.60
2018-02-19T12:48:20.436Z,55.90
2018-02-19T12:50:54.600Z,55.70
2018-02-19T12:53:28.368Z,56.20
2018-02-19T12:56:02.548Z,56.20
2018-02-19T12:58:36.859Z,55.70
2018-02-19T13:01:10.759Z,55.60
2018-02-19T13:03:44.439Z,54.80
2018-02-19T13:06:18.952Z,55.80
2018-02-19T13:08:53.010Z,55.90
2018-02-19T13:11:30.187Z,55.70
2018-02-19T13:14:04.902Z,55.30
2018-02-19T13:16:39.508Z,55.00
2018-02-19T13:19:13.526Z,54.90
2018-02-19T13:21:47.210Z,54.90
2018-02-19T13:24:21.020Z,56.00
2018-02-19T13:26:55.740Z,55.30
2018-02-19T13:29:29.744Z,55.20
2018-02-19T13:32:04.036Z,54.80
2018-02-19T13:34:38.564Z,55.70
2018-02-19T13:37:12.687Z,55.70
2018-02-19T13:39:46.730Z,56.20
2018-02-19T13:42:20.720Z,56.70
2018-02-19T13:44:54.640Z,56.70
2018-02-19T13:47:28.492Z,56.60
2018-02-19T13:50:02.229Z,55.80
2018-02-19T13:52:37.721Z,55.90
2018-02-19T13:55:13.022Z,56.20
2018-02-19T13:57:48.279Z,56.40
2018-02-19T14:00:23.377Z,56.30
2018-02-19T14:02:57.437Z,56.20
2018-02-19T14:05:32.017Z,56.50
2018-02-19T14:08:06.099Z,56.50
2018-02-19T14:10:39.730Z,56.80
2018-02-19T14:13:14.276Z,56.70
2018-02-19T14:15:49.381Z,56.30
2018-02-19T14:18:23.563Z,56.30
2018-02-19T14:20:57.382Z,55.60
2018-02-19T14:23:31.143Z,55.00
2018-02-19T14:26:05.047Z,54.50
2018-02-19T14:28:38.972Z,55.60
2018-02-19T14:31:12.828Z,55.70
2018-02-19T14:33:47.115Z,55.90
2018-02-19T14:36:20.870Z,55.80
2018-02-19T14:38:55.135Z,55.90
2018-02-19T14:41:29.036Z,56.20
2018-02-19T14:44:03.625Z,55.60
2018-02-19T14:46:37.443Z,55.90
2018-02-19T14:49:12.075Z,55.40
2018-02-19T14:51:46.099Z,55.40
2018-02-19T14:54:20.910Z,56.50
2018-02-19T14:56:55.167Z,56.30
2018-02-19T14:59:29.756Z,57.40
2018-02-19T15:02:03.907Z,56.60
2018-02-19T15:04:39.341Z,56.80
2018-02-19T15:07:13.506Z,56.20
2018-02-19T15:09:47.359Z,56.80
2018-02-19T15:12:22.140Z,56.70
2018-02-19T15:14:56.186Z,56.70
2018-02-19T15:17:30.084Z,57.40
2018-02-19T15:20:04.359Z,58.30
2018-02-19T15:22:38.811Z,57.10
2018-02-19T15:25:13.624Z,56.50
2018-02-19T15:27:47.647Z,56.50
2018-02-19T15:30:22.425Z,57.60
2018-02-19T15:32:57.307Z,57.30
2018-02-19T15:35:31.272Z,57.30
2018-02-19T15:38:05.932Z,57.80
2018-02-19T15:40:40.461Z,57.50
2018-02-19T15:43:15.307Z,56.60
2018-02-19T15:45:49.995Z,56.40
2018-02-19T15:48:24.930Z,56.20
2018-02-19T15:50:59.031Z,56.20
2018-02-19T15:53:32.761Z,57.50
2018-02-19T15:56:06.655Z,57.80
2018-02-19T15:58:41.575Z,57.10
2018-02-19T16:01:15.543Z,57.00
2018-02-19T16:03:49.431Z,57.10
2018-02-19T16:06:23.099Z,56.60
2018-02-19T16:08:57.935Z,58.00
2018-02-19T16:11:31.804Z,57.90
2018-02-19T16:14:05.395Z,57.20
2018-02-19T16:16:40.222Z,58.10
2018-02-19T16:19:14.478Z,58.10
2018-02-19T16:21:48.548Z,58.30
2018-02-19T16:24:23.017Z,58.80
2018-02-19T16:26:57.416Z,57.80
2018-02-19T16:29:32.252Z,58.60
2018-02-19T16:32:05.955Z,58.30
2018-02-19T16:34:39.873Z,56.90
2018-02-19T16:37:14.600Z,58.20
2018-02-19T16:39:48.263Z,58.90
2018-02-19T16:42:22.858Z,58.10
2018-02-19T16:44:57.747Z,58.00
2018-02-19T16:47:31.761Z,58.00
2018-02-19T16:50:06.701Z,58.20
2018-02-19T16:52:41.321Z,59.20
2018-02-19T16:55:16.903Z,59.70
2018-02-19T16:57:51.526Z,60.50
2018-02-19T17:00:26.120Z,60.50
2018-02-19T17:03:01.322Z,59.20
2018-02-19T17:05:35.419Z,59.10
2018-02-19T17:08:10.108Z,58.70
2018-02-19T17:10:44.746Z,58.60
2018-02-19T17:13:20.210Z,58.40
2018-02-19T17:15:54.992Z,58.40
2018-02-19T17:18:28.996Z,58.30
2018-02-19T17:21:03.775Z,58.10
2018-02-19T17:23:37.474Z,58.70
2018-02-19T17:26:11.287Z,57.70
2018-02-19T17:28:46.015Z,58.30
2018-02-19T17:31:20.681Z,59.30
2018-02-19T17:33:56.268Z,59.00
2018-02-19T17:36:31.043Z,59.60
2018-02-19T17:39:05.940Z,58.60
2018-02-19T17:41:41.019Z,59.20
2018-02-19T17:44:15.305Z,59.10
2018-02-19T17:46:49.965Z,59.10
2018-02-19T17:49:24.043Z,59.00
2018-02-19T17:51:57.995Z,59.30
2018-02-19T17:54:32.999Z,59.30
2018-02-19T17:57:06.966Z,59.20
2018-02-19T17:59:40.843Z,59.20
2018-02-19T18:02:15.482Z,59.30
2018-02-19T18:04:49.671Z,59.30
2018-02-19T18:07:23.783Z,59.20
2018-02-19T18:09:57.924Z,59.20
2018-02-19T18:12:31.776Z,58.20
2018-02-19T18:15:05.652Z,58.00
2018-02-19T18:17:40.281Z,57.80
2018-02-19T18:20:14.581Z,58.20
2018-02-19T18:22:50.088Z,57.50
2018-02-19T18:25:23.903Z,57.40
2018-02-19T18:27:58.645Z,58.30
2018-02-19T18:30:33.290Z,58.30
2018-02-19T18:33:07.477Z,58.50
2018-02-19T18:35:42.913Z,57.70
2018-02-19T18:38:17.502Z,57.80
2018-02-19T18:40:51.529Z,57.70
2018-02-19T18:43:25.349Z,57.80
2018-02-19T18:45:59.113Z,58.00
2018-02-19T18:48:33.690Z,58.70
2018-02-19T18:51:07.625Z,57.90
2018-02-19T18:53:42.223Z,57.70
2018-02-19T18:56:16.010Z,58.40
2018-02-19T18:58:50.728Z,58.70
2018-02-19T19:01:28.620Z,58.70
2018-02-19T19:04:04.304Z,58.90
2018-02-19T19:06:39.174Z,58.20
2018-02-19T19:12:21.571Z,58.80
2018-02-19T19:14:56.926Z,58.40
2018-02-19T19:17:31.765Z,58.40
2018-02-19T19:20:06.525Z,59.10
2018-02-19T19:22:40.976Z,59.60
2018-02-19T19:25:15.093Z,59.60
2018-02-19T19:27:49.219Z,59.10
2018-02-19T19:30:23.082Z,59.00
2018-02-19T19:32:57.303Z,60.00
2018-02-19T19:35:31.899Z,59.70
2018-02-19T19:38:06.547Z,59.00
2018-02-19T19:40:41.323Z,59.00
2018-02-19T19:43:16.816Z,58.80
2018-02-19T19:45:51.269Z,58.70
2018-02-19T19:48:25.985Z,58.60
2018-02-19T19:51:01.055Z,58.40
2018-02-19T19:53:35.409Z,58.80
2018-02-19T19:56:09.540Z,59.30
2018-02-19T19:58:44.160Z,59.10
2018-02-19T20:01:18.126Z,59.10
2018-02-19T20:03:53.092Z,59.00
2018-02-19T20:06:27.339Z,58.00
2018-02-19T20:09:01.199Z,58.10
2018-02-19T20:11:34.956Z,58.40
2018-02-19T20:14:08.824Z,57.90
2018-02-19T20:16:42.435Z,59.00
2018-02-19T20:19:17.040Z,58.60
2018-02-19T20:21:50.998Z,58.60
2018-02-19T20:24:24.839Z,58.60
2018-02-19T20:26:59.561Z,58.50
2018-02-19T20:29:33.399Z,58.00
2018-02-19T20:32:07.811Z,58.70
2018-02-19T20:34:41.999Z,58.70
2018-02-19T20:37:15.683Z,58.60
2018-02-19T20:39:49.436Z,58.30
2018-02-19T20:42:23.847Z,58.70
2018-02-19T20:44:58.448Z,58.00
2018-02-19T20:47:32.448Z,58.00
2018-02-19T20:50:06.442Z,57.80
2018-02-19T20:52:40.802Z,58.60
2018-02-19T20:55:14.601Z,58.20
2018-02-19T20:57:48.651Z,58.20
2018-02-19T21:00:23.307Z,57.30
2018-02-19T21:02:58.751Z,57.60
2018-02-19T21:05:32.894Z,57.60
2018-02-19T21:08:06.627Z,58.10
2018-02-19T21:10:41.980Z,57.60
2018-02-19T21:13:16.374Z,57.60
2018-02-19T21:15:50.298Z,57.60
2018-02-19T21:18:25.052Z,57.90
2018-02-19T21:21:00.556Z,57.70
2018-02-19T21:23:34.521Z,57.60
2018-02-19T21:26:09.261Z,57.50
2018-02-19T21:28:43.990Z,57.40
2018-02-19T21:31:17.733Z,56.90
2018-02-19T21:33:51.784Z,57.80
2018-02-19T21:36:25.653Z,57.00
2018-02-19T21:38:59.276Z,57.00
2018-02-19T21:41:33.852Z,57.00
2018-02-19T21:44:07.888Z,57.00
2018-02-19T21:46:41.744Z,56.40
2018-02-19T21:49:16.360Z,57.20
2018-02-19T21:54:31.964Z,56.60
2018-02-19T21:57:06.074Z,56.60
2018-02-19T21:59:40.644Z,56.50
2018-02-19T22:02:14.528Z,56.50
2018-02-19T22:04:50.442Z,55.90
2018-02-19T22:07:26.537Z,55.90
2018-02-19T22:10:01.888Z,56.10
2018-02-19T22:12:36.587Z,55.80
2018-02-19T22:15:11.415Z,55.50
2018-02-19T22:17:45.949Z,56.00
2018-02-19T22:20:21.071Z,56.00
2018-02-19T22:22:56.442Z,56.20
2018-02-19T22:25:31.363Z,57.00
2018-02-19T22:28:06.403Z,56.50
2018-02-19T22:30:42.366Z,55.90
2018-02-19T22:33:18.240Z,55.90
2018-02-19T22:35:54.006Z,55.90
2018-02-19T22:38:29.113Z,55.80
2018-02-19T22:41:03.783Z,55.40
2018-02-19T22:43:39.268Z,55.40
2018-02-19T22:46:14.446Z,55.60
2018-02-19T22:48:48.833Z,55.60
2018-02-19T22:51:22.815Z,55.60
2018-02-19T22:53:56.692Z,55.40
2018-02-19T22:56:30.571Z,55.30
2018-02-19T22:59:05.291Z,55.00
2018-02-19T23:01:40.387Z,55.10
2018-02-19T23:04:15.138Z,55.00
2018-02-19T23:06:48.945Z,55.40
2018-02-19T23:09:23.633Z,55.30
2018-02-19T23:11:57.450Z,55.20
2018-02-19T23:14:31.436Z,55.10
2018-02-19T23:17:06.251Z,55.30
2018-02-19T23:19:40.900Z,55.20
2018-02-19T23:22:14.606Z,54.90
2018-02-19T23:24:48.389Z,54.70
2018-02-19T23:27:22.069Z,54.90
2018-02-19T23:29:56.481Z,55.20
2018-02-19T23:32:30.594Z,55.20
2018-02-19T23:35:04.259Z,55.20
2018-02-19T23:37:37.892Z,55.50
2018-02-19T23:40:12.183Z,55.50
2018-02-19T23:42:46.937Z,55.40
2018-02-19T23:45:21.177Z,55.90
2018-02-19T23:47:55.056Z,55.40
2018-02-19T23:50:29.112Z,55.40
2018-02-19T23:53:03.652Z,56.20
2018-02-19T23:55:38.731Z,56.50
2018-02-19T23:58:12.644Z,56.40
